sensor_id;sensor_type;location;lat;lon;timestamp;P1;durP1;ratioP1;P2;durP2;ratioP2
70169;SDS011;57543;45.442;9.212;2022-12-18T00:00:32;38.05;;;18.50;;
70169;SDS011;57543;45.442;9.212;2022-12-18T00:03:36;39.85;;;18.58;;
70169;SDS011;57543;45.442;9.212;2022-12-18T00:06:39;42.53;;;18.65;;
70169;SDS011;57543;45.442;9.212;2022-12-18T00:09:42;41.00;;;18.25;;
70169;SDS011;57543;45.442;9.212;2022-12-18T00:12:46;40.63;;;18.67;;
70169;SDS011;57543;45.442;9.212;2022-12-18T00:15:50;43.15;;;18.45;;
70169;SDS011;57543;45.442;9.212;2022-12-18T00:18:54;43.38;;;19.13;;
70169;SDS011;57543;45.442;9.212;2022-12-18T00:22:01;36.35;;;17.27;;
70169;SDS011;57543;45.442;9.212;2022-12-18T00:25:04;39.33;;;18.35;;
70169;SDS011;57543;45.442;9.212;2022-12-18T00:28:08;38.77;;;19.37;;
70169;SDS011;57543;45.442;9.212;2022-12-18T00:31:13;42.72;;;19.45;;
70169;SDS011;57543;45.442;9.212;2022-12-18T00:34:18;39.13;;;18.58;;
70169;SDS011;57543;45.442;9.212;2022-12-18T00:37:22;44.53;;;18.70;;
70169;SDS011;57543;45.442;9.212;2022-12-18T00:40:28;40.38;;;18.67;;
70169;SDS011;57543;45.442;9.212;2022-12-18T00:43:31;43.80;;;19.07;;
70169;SDS011;57543;45.442;9.212;2022-12-18T00:46:38;51.42;;;20.55;;
70169;SDS011;57543;45.442;9.212;2022-12-18T00:49:41;41.88;;;18.00;;
70169;SDS011;57543;45.442;9.212;2022-12-18T00:52:45;50.83;;;20.60;;
70169;SDS011;57543;45.442;9.212;2022-12-18T00:55:49;46.83;;;20.05;;
70169;SDS011;57543;45.442;9.212;2022-12-18T00:58:52;54.63;;;21.17;;
70169;SDS011;57543;45.442;9.212;2022-12-18T01:01:56;46.65;;;19.20;;
70169;SDS011;57543;45.442;9.212;2022-12-18T01:05:00;49.22;;;19.73;;
70169;SDS011;57543;45.442;9.212;2022-12-18T01:08:04;53.20;;;19.63;;
70169;SDS011;57543;45.442;9.212;2022-12-18T01:11:08;51.08;;;19.70;;
70169;SDS011;57543;45.442;9.212;2022-12-18T01:14:13;45.93;;;18.63;;
70169;SDS011;57543;45.442;9.212;2022-12-18T01:17:17;44.60;;;19.00;;
70169;SDS011;57543;45.442;9.212;2022-12-18T01:20:20;42.72;;;18.85;;
70169;SDS011;57543;45.442;9.212;2022-12-18T01:23:24;42.03;;;18.80;;
70169;SDS011;57543;45.442;9.212;2022-12-18T01:26:28;43.33;;;18.63;;
70169;SDS011;57543;45.442;9.212;2022-12-18T01:29:33;51.57;;;20.27;;
70169;SDS011;57543;45.442;9.212;2022-12-18T01:32:37;51.80;;;20.88;;
70169;SDS011;57543;45.442;9.212;2022-12-18T01:35:42;50.03;;;20.75;;
70169;SDS011;57543;45.442;9.212;2022-12-18T01:38:46;51.78;;;21.65;;
70169;SDS011;57543;45.442;9.212;2022-12-18T01:41:51;55.30;;;22.73;;
70169;SDS011;57543;45.442;9.212;2022-12-18T01:45:29;53.13;;;22.10;;
70169;SDS011;57543;45.442;9.212;2022-12-18T01:48:31;51.28;;;21.42;;
70169;SDS011;57543;45.442;9.212;2022-12-18T01:51:35;53.00;;;22.17;;
70169;SDS011;57543;45.442;9.212;2022-12-18T01:54:39;49.42;;;21.75;;
70169;SDS011;57543;45.442;9.212;2022-12-18T01:57:43;51.67;;;21.63;;
70169;SDS011;57543;45.442;9.212;2022-12-18T02:00:46;48.07;;;21.73;;
70169;SDS011;57543;45.442;9.212;2022-12-18T02:03:50;48.35;;;20.80;;
70169;SDS011;57543;45.442;9.212;2022-12-18T02:06:57;48.70;;;20.35;;
70169;SDS011;57543;45.442;9.212;2022-12-18T02:10:08;50.35;;;21.17;;
70169;SDS011;57543;45.442;9.212;2022-12-18T02:13:23;47.75;;;19.63;;
70169;SDS011;57543;45.442;9.212;2022-12-18T02:16:39;50.70;;;21.90;;
70169;SDS011;57543;45.442;9.212;2022-12-18T02:20:05;48.63;;;20.63;;
70169;SDS011;57543;45.442;9.212;2022-12-18T02:23:35;51.58;;;21.85;;
70169;SDS011;57543;45.442;9.212;2022-12-18T02:27:04;46.15;;;20.83;;
70169;SDS011;57543;45.442;9.212;2022-12-18T02:30:10;52.58;;;21.60;;
70169;SDS011;57543;45.442;9.212;2022-12-18T02:33:15;49.20;;;22.07;;
70169;SDS011;57543;45.442;9.212;2022-12-18T02:36:20;50.42;;;21.65;;
70169;SDS011;57543;45.442;9.212;2022-12-18T02:39:26;51.55;;;21.63;;
70169;SDS011;57543;45.442;9.212;2022-12-18T02:42:37;51.80;;;22.02;;
70169;SDS011;57543;45.442;9.212;2022-12-18T02:45:47;50.10;;;21.58;;
70169;SDS011;57543;45.442;9.212;2022-12-18T02:49:01;49.07;;;21.10;;
70169;SDS011;57543;45.442;9.212;2022-12-18T03:02:19;52.47;;;21.35;;
70169;SDS011;57543;45.442;9.212;2022-12-18T03:05:30;51.23;;;21.53;;
70169;SDS011;57543;45.442;9.212;2022-12-18T03:08:39;56.30;;;22.42;;
70169;SDS011;57543;45.442;9.212;2022-12-18T03:11:58;52.58;;;21.55;;
70169;SDS011;57543;45.442;9.212;2022-12-18T03:15:30;50.53;;;20.90;;
70169;SDS011;57543;45.442;9.212;2022-12-18T03:18:46;47.75;;;21.17;;
70169;SDS011;57543;45.442;9.212;2022-12-18T03:21:53;45.40;;;19.40;;
70169;SDS011;57543;45.442;9.212;2022-12-18T03:25:02;45.75;;;19.67;;
70169;SDS011;57543;45.442;9.212;2022-12-18T03:28:15;47.72;;;21.13;;
70169;SDS011;57543;45.442;9.212;2022-12-18T03:31:25;49.40;;;20.60;;
70169;SDS011;57543;45.442;9.212;2022-12-18T03:34:33;50.50;;;20.45;;
70169;SDS011;57543;45.442;9.212;2022-12-18T03:37:42;52.80;;;21.53;;
70169;SDS011;57543;45.442;9.212;2022-12-18T03:44:54;52.67;;;21.98;;
70169;SDS011;57543;45.442;9.212;2022-12-18T03:48:13;48.00;;;20.02;;
70169;SDS011;57543;45.442;9.212;2022-12-18T03:51:25;48.17;;;20.25;;
70169;SDS011;57543;45.442;9.212;2022-12-18T03:54:34;54.67;;;21.97;;
70169;SDS011;57543;45.442;9.212;2022-12-18T03:57:47;51.90;;;21.70;;
70169;SDS011;57543;45.442;9.212;2022-12-18T04:00:52;49.10;;;21.45;;
70169;SDS011;57543;45.442;9.212;2022-12-18T04:04:00;47.30;;;20.00;;
70169;SDS011;57543;45.442;9.212;2022-12-18T04:07:06;48.97;;;19.88;;
70169;SDS011;57543;45.442;9.212;2022-12-18T04:10:14;49.83;;;20.77;;
70169;SDS011;57543;45.442;9.212;2022-12-18T04:13:30;50.63;;;21.33;;
70169;SDS011;57543;45.442;9.212;2022-12-18T04:16:39;53.45;;;22.17;;
70169;SDS011;57543;45.442;9.212;2022-12-18T04:19:46;53.25;;;21.10;;
70169;SDS011;57543;45.442;9.212;2022-12-18T04:22:50;51.25;;;21.23;;
70169;SDS011;57543;45.442;9.212;2022-12-18T04:25:56;48.33;;;20.60;;
70169;SDS011;57543;45.442;9.212;2022-12-18T04:29:15;47.40;;;19.85;;
70169;SDS011;57543;45.442;9.212;2022-12-18T04:32:19;48.38;;;20.30;;
70169;SDS011;57543;45.442;9.212;2022-12-18T04:35:24;55.42;;;21.50;;
70169;SDS011;57543;45.442;9.212;2022-12-18T04:38:29;52.00;;;21.55;;
70169;SDS011;57543;45.442;9.212;2022-12-18T04:41:40;51.93;;;20.97;;
70169;SDS011;57543;45.442;9.212;2022-12-18T04:44:45;57.10;;;21.55;;
70169;SDS011;57543;45.442;9.212;2022-12-18T04:47:49;51.22;;;19.90;;
70169;SDS011;57543;45.442;9.212;2022-12-18T04:50:52;53.88;;;21.38;;
70169;SDS011;57543;45.442;9.212;2022-12-18T04:53:56;54.80;;;21.80;;
70169;SDS011;57543;45.442;9.212;2022-12-18T04:57:00;55.93;;;21.80;;
70169;SDS011;57543;45.442;9.212;2022-12-18T05:00:03;52.35;;;20.38;;
70169;SDS011;57543;45.442;9.212;2022-12-18T05:03:09;61.42;;;21.83;;
70169;SDS011;57543;45.442;9.212;2022-12-18T05:06:12;57.63;;;22.70;;
70169;SDS011;57543;45.442;9.212;2022-12-18T05:09:15;53.90;;;20.92;;
70169;SDS011;57543;45.442;9.212;2022-12-18T05:12:19;60.97;;;21.97;;
70169;SDS011;57543;45.442;9.212;2022-12-18T05:15:24;59.40;;;21.92;;
70169;SDS011;57543;45.442;9.212;2022-12-18T05:18:31;61.92;;;22.35;;
70169;SDS011;57543;45.442;9.212;2022-12-18T05:21:34;59.42;;;21.38;;
70169;SDS011;57543;45.442;9.212;2022-12-18T05:24:38;57.58;;;21.35;;
70169;SDS011;57543;45.442;9.212;2022-12-18T05:27:42;55.00;;;21.60;;
70169;SDS011;57543;45.442;9.212;2022-12-18T05:30:52;55.70;;;20.42;;
70169;SDS011;57543;45.442;9.212;2022-12-18T05:33:57;60.08;;;21.27;;
70169;SDS011;57543;45.442;9.212;2022-12-18T05:37:01;68.18;;;21.13;;
70169;SDS011;57543;45.442;9.212;2022-12-18T05:40:05;66.18;;;21.85;;
70169;SDS011;57543;45.442;9.212;2022-12-18T05:43:09;62.30;;;21.13;;
70169;SDS011;57543;45.442;9.212;2022-12-18T05:46:15;63.47;;;22.20;;
70169;SDS011;57543;45.442;9.212;2022-12-18T05:49:20;61.97;;;20.98;;
70169;SDS011;57543;45.442;9.212;2022-12-18T05:52:24;64.72;;;21.92;;
70169;SDS011;57543;45.442;9.212;2022-12-18T05:55:27;64.30;;;20.65;;
70169;SDS011;57543;45.442;9.212;2022-12-18T05:58:32;63.60;;;20.63;;
70169;SDS011;57543;45.442;9.212;2022-12-18T06:01:36;59.17;;;20.33;;
70169;SDS011;57543;45.442;9.212;2022-12-18T06:04:40;66.60;;;23.02;;
70169;SDS011;57543;45.442;9.212;2022-12-18T06:07:44;63.45;;;21.38;;
70169;SDS011;57543;45.442;9.212;2022-12-18T06:10:49;58.45;;;21.65;;
70169;SDS011;57543;45.442;9.212;2022-12-18T06:13:55;68.00;;;21.53;;
70169;SDS011;57543;45.442;9.212;2022-12-18T06:16:59;66.82;;;23.27;;
70169;SDS011;57543;45.442;9.212;2022-12-18T06:20:03;67.63;;;22.08;;
70169;SDS011;57543;45.442;9.212;2022-12-18T06:23:07;65.82;;;21.63;;
70169;SDS011;57543;45.442;9.212;2022-12-18T06:26:12;73.30;;;22.65;;
70169;SDS011;57543;45.442;9.212;2022-12-18T06:29:16;67.03;;;21.53;;
70169;SDS011;57543;45.442;9.212;2022-12-18T06:32:20;69.97;;;21.88;;
70169;SDS011;57543;45.442;9.212;2022-12-18T06:35:24;77.60;;;22.70;;
70169;SDS011;57543;45.442;9.212;2022-12-18T06:38:27;70.20;;;21.67;;
70169;SDS011;57543;45.442;9.212;2022-12-18T06:41:31;68.55;;;23.45;;
70169;SDS011;57543;45.442;9.212;2022-12-18T06:44:35;65.77;;;20.90;;
70169;SDS011;57543;45.442;9.212;2022-12-18T06:47:38;59.42;;;20.92;;
70169;SDS011;57543;45.442;9.212;2022-12-18T06:50:42;60.08;;;21.25;;
70169;SDS011;57543;45.442;9.212;2022-12-18T06:53:45;62.20;;;20.05;;
70169;SDS011;57543;45.442;9.212;2022-12-18T06:56:49;64.55;;;19.85;;
70169;SDS011;57543;45.442;9.212;2022-12-18T06:59:52;69.20;;;20.53;;
70169;SDS011;57543;45.442;9.212;2022-12-18T07:02:56;62.75;;;20.10;;
70169;SDS011;57543;45.442;9.212;2022-12-18T07:06:00;62.25;;;20.25;;
70169;SDS011;57543;45.442;9.212;2022-12-18T07:09:03;57.85;;;20.13;;
70169;SDS011;57543;45.442;9.212;2022-12-18T07:12:07;60.75;;;19.80;;
70169;SDS011;57543;45.442;9.212;2022-12-18T07:15:11;57.63;;;19.60;;
70169;SDS011;57543;45.442;9.212;2022-12-18T07:18:15;61.95;;;19.63;;
70169;SDS011;57543;45.442;9.212;2022-12-18T07:21:19;56.58;;;19.58;;
70169;SDS011;57543;45.442;9.212;2022-12-18T07:24:22;53.80;;;18.75;;
70169;SDS011;57543;45.442;9.212;2022-12-18T07:27:26;51.75;;;17.52;;
70169;SDS011;57543;45.442;9.212;2022-12-18T07:30:30;52.97;;;18.23;;
70169;SDS011;57543;45.442;9.212;2022-12-18T07:33:34;54.95;;;18.50;;
70169;SDS011;57543;45.442;9.212;2022-12-18T07:36:38;58.17;;;19.85;;
70169;SDS011;57543;45.442;9.212;2022-12-18T07:39:42;51.45;;;18.48;;
70169;SDS011;57543;45.442;9.212;2022-12-18T07:42:45;53.55;;;18.90;;
70169;SDS011;57543;45.442;9.212;2022-12-18T07:45:49;51.47;;;18.87;;
70169;SDS011;57543;45.442;9.212;2022-12-18T07:48:54;48.78;;;18.50;;
70169;SDS011;57543;45.442;9.212;2022-12-18T07:51:58;50.85;;;18.35;;
70169;SDS011;57543;45.442;9.212;2022-12-18T07:55:02;52.03;;;18.23;;
70169;SDS011;57543;45.442;9.212;2022-12-18T07:58:06;48.65;;;18.48;;
70169;SDS011;57543;45.442;9.212;2022-12-18T08:01:11;47.17;;;19.37;;
70169;SDS011;57543;45.442;9.212;2022-12-18T08:04:15;49.75;;;19.02;;
70169;SDS011;57543;45.442;9.212;2022-12-18T08:07:19;47.90;;;18.85;;
70169;SDS011;57543;45.442;9.212;2022-12-18T08:10:23;47.65;;;19.58;;
70169;SDS011;57543;45.442;9.212;2022-12-18T08:13:26;55.30;;;19.27;;
70169;SDS011;57543;45.442;9.212;2022-12-18T08:16:30;55.43;;;21.50;;
70169;SDS011;57543;45.442;9.212;2022-12-18T08:19:34;49.10;;;20.23;;
70169;SDS011;57543;45.442;9.212;2022-12-18T08:22:38;53.17;;;20.15;;
70169;SDS011;57543;45.442;9.212;2022-12-18T08:25:41;50.58;;;19.50;;
70169;SDS011;57543;45.442;9.212;2022-12-18T08:28:45;58.88;;;21.80;;
70169;SDS011;57543;45.442;9.212;2022-12-18T08:31:49;58.33;;;21.53;;
70169;SDS011;57543;45.442;9.212;2022-12-18T08:34:53;56.67;;;20.48;;
70169;SDS011;57543;45.442;9.212;2022-12-18T08:37:57;48.67;;;19.00;;
70169;SDS011;57543;45.442;9.212;2022-12-18T08:41:02;49.70;;;19.65;;
70169;SDS011;57543;45.442;9.212;2022-12-18T08:44:07;56.20;;;20.30;;
70169;SDS011;57543;45.442;9.212;2022-12-18T08:47:30;51.73;;;20.13;;
70169;SDS011;57543;45.442;9.212;2022-12-18T08:50:33;51.60;;;19.75;;
70169;SDS011;57543;45.442;9.212;2022-12-18T08:53:37;50.08;;;20.27;;
70169;SDS011;57543;45.442;9.212;2022-12-18T08:56:41;53.70;;;20.48;;
70169;SDS011;57543;45.442;9.212;2022-12-18T08:59:45;54.15;;;20.83;;
70169;SDS011;57543;45.442;9.212;2022-12-18T09:02:48;50.93;;;19.20;;
70169;SDS011;57543;45.442;9.212;2022-12-18T09:05:52;52.22;;;20.10;;
70169;SDS011;57543;45.442;9.212;2022-12-18T09:08:56;46.33;;;18.77;;
70169;SDS011;57543;45.442;9.212;2022-12-18T09:12:00;60.67;;;21.30;;
70169;SDS011;57543;45.442;9.212;2022-12-18T09:15:03;52.28;;;20.60;;
70169;SDS011;57543;45.442;9.212;2022-12-18T09:18:08;53.40;;;21.63;;
70169;SDS011;57543;45.442;9.212;2022-12-18T09:21:13;56.78;;;21.45;;
70169;SDS011;57543;45.442;9.212;2022-12-18T09:24:18;52.50;;;21.65;;
70169;SDS011;57543;45.442;9.212;2022-12-18T09:27:21;50.53;;;21.02;;
70169;SDS011;57543;45.442;9.212;2022-12-18T09:30:26;52.00;;;19.90;;
70169;SDS011;57543;45.442;9.212;2022-12-18T09:33:30;49.60;;;20.57;;
70169;SDS011;57543;45.442;9.212;2022-12-18T09:36:34;50.78;;;20.13;;
70169;SDS011;57543;45.442;9.212;2022-12-18T09:39:37;48.28;;;19.73;;
70169;SDS011;57543;45.442;9.212;2022-12-18T09:42:41;49.22;;;20.42;;
70169;SDS011;57543;45.442;9.212;2022-12-18T09:45:51;47.78;;;20.77;;
70169;SDS011;57543;45.442;9.212;2022-12-18T09:49:00;51.90;;;21.00;;
70169;SDS011;57543;45.442;9.212;2022-12-18T09:52:16;53.20;;;22.27;;
70169;SDS011;57543;45.442;9.212;2022-12-18T09:58:31;50.25;;;20.45;;
70169;SDS011;57543;45.442;9.212;2022-12-18T10:01:41;50.10;;;19.00;;
70169;SDS011;57543;45.442;9.212;2022-12-18T10:04:46;46.60;;;16.40;;
70169;SDS011;57543;45.442;9.212;2022-12-18T10:08:02;50.25;;;17.77;;
70169;SDS011;57543;45.442;9.212;2022-12-18T10:15:06;71.47;;;23.35;;
70169;SDS011;57543;45.442;9.212;2022-12-18T10:18:44;85.53;;;25.33;;
70169;SDS011;57543;45.442;9.212;2022-12-18T10:21:58;71.17;;;24.63;;
70169;SDS011;57543;45.442;9.212;2022-12-18T10:25:24;64.00;;;22.30;;
70169;SDS011;57543;45.442;9.212;2022-12-18T10:28:34;62.35;;;22.23;;
70169;SDS011;57543;45.442;9.212;2022-12-18T10:31:40;62.15;;;23.20;;
70169;SDS011;57543;45.442;9.212;2022-12-18T10:34:45;68.97;;;23.63;;
70169;SDS011;57543;45.442;9.212;2022-12-18T10:38:27;61.67;;;22.23;;
70169;SDS011;57543;45.442;9.212;2022-12-18T10:41:41;60.55;;;23.35;;
70169;SDS011;57543;45.442;9.212;2022-12-18T10:44:45;67.70;;;24.23;;
70169;SDS011;57543;45.442;9.212;2022-12-18T10:47:49;64.10;;;22.75;;
70169;SDS011;57543;45.442;9.212;2022-12-18T10:50:53;61.00;;;24.27;;
70169;SDS011;57543;45.442;9.212;2022-12-18T10:54:02;66.97;;;24.87;;
70169;SDS011;57543;45.442;9.212;2022-12-18T10:57:28;67.40;;;23.52;;
70169;SDS011;57543;45.442;9.212;2022-12-18T11:00:34;65.57;;;23.15;;
70169;SDS011;57543;45.442;9.212;2022-12-18T11:06:59;59.45;;;22.63;;
70169;SDS011;57543;45.442;9.212;2022-12-18T11:10:15;58.40;;;22.17;;
70169;SDS011;57543;45.442;9.212;2022-12-18T11:13:23;52.53;;;20.50;;
70169;SDS011;57543;45.442;9.212;2022-12-18T11:16:29;67.93;;;24.60;;
70169;SDS011;57543;45.442;9.212;2022-12-18T11:19:37;57.65;;;21.33;;
70169;SDS011;57543;45.442;9.212;2022-12-18T11:22:44;52.85;;;20.90;;
70169;SDS011;57543;45.442;9.212;2022-12-18T11:26:00;52.10;;;21.83;;
70169;SDS011;57543;45.442;9.212;2022-12-18T11:29:09;55.63;;;21.27;;
70169;SDS011;57543;45.442;9.212;2022-12-18T11:32:27;53.67;;;20.70;;
70169;SDS011;57543;45.442;9.212;2022-12-18T11:35:52;52.58;;;21.30;;
70169;SDS011;57543;45.442;9.212;2022-12-18T11:38:59;52.10;;;21.55;;
70169;SDS011;57543;45.442;9.212;2022-12-18T11:42:10;49.97;;;20.20;;
70169;SDS011;57543;45.442;9.212;2022-12-18T11:45:25;48.88;;;19.95;;
70169;SDS011;57543;45.442;9.212;2022-12-18T11:48:38;50.22;;;19.88;;
70169;SDS011;57543;45.442;9.212;2022-12-18T11:51:49;41.08;;;18.15;;
70169;SDS011;57543;45.442;9.212;2022-12-18T11:55:21;41.45;;;17.88;;
70169;SDS011;57543;45.442;9.212;2022-12-18T12:05:36;56.72;;;23.42;;
70169;SDS011;57543;45.442;9.212;2022-12-18T12:08:53;51.45;;;22.85;;
70169;SDS011;57543;45.442;9.212;2022-12-18T12:21:53;42.00;;;19.23;;
70169;SDS011;57543;45.442;9.212;2022-12-18T12:25:18;39.03;;;18.13;;
70169;SDS011;57543;45.442;9.212;2022-12-18T12:38:30;37.83;;;19.45;;
70169;SDS011;57543;45.442;9.212;2022-12-18T12:41:38;37.53;;;18.52;;
70169;SDS011;57543;45.442;9.212;2022-12-18T12:45:03;36.30;;;18.58;;
70169;SDS011;57543;45.442;9.212;2022-12-18T12:48:13;38.73;;;18.83;;
70169;SDS011;57543;45.442;9.212;2022-12-18T12:51:40;37.63;;;18.48;;
70169;SDS011;57543;45.442;9.212;2022-12-18T12:54:47;39.95;;;19.10;;
70169;SDS011;57543;45.442;9.212;2022-12-18T13:01:08;42.72;;;20.63;;
70169;SDS011;57543;45.442;9.212;2022-12-18T13:04:25;37.13;;;19.27;;
70169;SDS011;57543;45.442;9.212;2022-12-18T13:07:41;45.75;;;20.48;;
70169;SDS011;57543;45.442;9.212;2022-12-18T13:10:53;47.67;;;22.27;;
70169;SDS011;57543;45.442;9.212;2022-12-18T13:14:51;43.85;;;20.55;;
70169;SDS011;57543;45.442;9.212;2022-12-18T13:17:47;44.67;;;21.33;;
70169;SDS011;57543;45.442;9.212;2022-12-18T13:24:14;48.50;;;21.77;;
70169;SDS011;57543;45.442;9.212;2022-12-18T13:27:45;47.08;;;22.73;;
70169;SDS011;57543;45.442;9.212;2022-12-18T13:31:07;47.88;;;23.02;;
70169;SDS011;57543;45.442;9.212;2022-12-18T13:34:18;49.30;;;22.65;;
70169;SDS011;57543;45.442;9.212;2022-12-18T13:43:43;51.00;;;23.67;;
70169;SDS011;57543;45.442;9.212;2022-12-18T13:46:51;50.72;;;23.10;;
70169;SDS011;57543;45.442;9.212;2022-12-18T13:49:56;52.03;;;22.95;;
70169;SDS011;57543;45.442;9.212;2022-12-18T13:53:00;51.27;;;23.63;;
70169;SDS011;57543;45.442;9.212;2022-12-18T13:56:05;53.10;;;23.10;;
70169;SDS011;57543;45.442;9.212;2022-12-18T14:02:26;50.28;;;23.77;;
70169;SDS011;57543;45.442;9.212;2022-12-18T14:08:39;50.60;;;23.43;;
70169;SDS011;57543;45.442;9.212;2022-12-18T14:11:49;52.17;;;23.42;;
70169;SDS011;57543;45.442;9.212;2022-12-18T14:14:53;53.33;;;25.05;;
70169;SDS011;57543;45.442;9.212;2022-12-18T14:18:01;53.45;;;24.27;;
70169;SDS011;57543;45.442;9.212;2022-12-18T14:21:18;48.20;;;23.08;;
70169;SDS011;57543;45.442;9.212;2022-12-18T14:24:32;53.70;;;24.00;;
70169;SDS011;57543;45.442;9.212;2022-12-18T14:27:37;51.70;;;23.38;;
70169;SDS011;57543;45.442;9.212;2022-12-18T14:30:45;51.97;;;23.52;;
70169;SDS011;57543;45.442;9.212;2022-12-18T14:33:50;56.53;;;24.15;;
70169;SDS011;57543;45.442;9.212;2022-12-18T14:36:54;49.85;;;23.98;;
70169;SDS011;57543;45.442;9.212;2022-12-18T14:40:00;48.40;;;22.60;;
70169;SDS011;57543;45.442;9.212;2022-12-18T14:43:08;49.78;;;23.60;;
70169;SDS011;57543;45.442;9.212;2022-12-18T14:49:35;45.50;;;20.90;;
70169;SDS011;57543;45.442;9.212;2022-12-18T14:52:40;43.65;;;21.42;;
70169;SDS011;57543;45.442;9.212;2022-12-18T14:55:47;42.63;;;20.23;;
70169;SDS011;57543;45.442;9.212;2022-12-18T14:58:53;46.95;;;21.13;;
70169;SDS011;57543;45.442;9.212;2022-12-18T15:02:04;51.53;;;23.63;;
70169;SDS011;57543;45.442;9.212;2022-12-18T15:05:29;52.42;;;22.85;;
70169;SDS011;57543;45.442;9.212;2022-12-18T15:08:36;54.53;;;24.30;;
70169;SDS011;57543;45.442;9.212;2022-12-18T15:14:43;56.08;;;26.42;;
70169;SDS011;57543;45.442;9.212;2022-12-18T15:17:47;50.30;;;24.15;;
70169;SDS011;57543;45.442;9.212;2022-12-18T15:20:58;46.92;;;22.05;;
70169;SDS011;57543;45.442;9.212;2022-12-18T15:24:03;48.92;;;22.83;;
70169;SDS011;57543;45.442;9.212;2022-12-18T15:27:18;47.10;;;23.30;;
70169;SDS011;57543;45.442;9.212;2022-12-18T15:30:24;47.75;;;22.85;;
70169;SDS011;57543;45.442;9.212;2022-12-18T15:33:38;51.92;;;23.90;;
70169;SDS011;57543;45.442;9.212;2022-12-18T15:36:44;49.95;;;22.98;;
70169;SDS011;57543;45.442;9.212;2022-12-18T15:39:48;53.70;;;24.25;;
70169;SDS011;57543;45.442;9.212;2022-12-18T15:42:52;53.53;;;20.50;;
70169;SDS011;57543;45.442;9.212;2022-12-18T15:46:17;59.42;;;26.02;;
70169;SDS011;57543;45.442;9.212;2022-12-18T15:49:22;60.78;;;27.38;;
70169;SDS011;57543;45.442;9.212;2022-12-18T15:52:26;59.17;;;25.92;;
70169;SDS011;57543;45.442;9.212;2022-12-18T15:55:30;61.45;;;27.35;;
70169;SDS011;57543;45.442;9.212;2022-12-18T15:58:53;61.67;;;26.17;;
70169;SDS011;57543;45.442;9.212;2022-12-18T16:01:56;63.92;;;26.23;;
70169;SDS011;57543;45.442;9.212;2022-12-18T16:05:00;53.67;;;24.73;;
70169;SDS011;57543;45.442;9.212;2022-12-18T16:08:03;61.80;;;26.92;;
70169;SDS011;57543;45.442;9.212;2022-12-18T16:11:41;56.92;;;24.73;;
70169;SDS011;57543;45.442;9.212;2022-12-18T16:14:41;57.53;;;25.03;;
70169;SDS011;57543;45.442;9.212;2022-12-18T16:17:45;58.63;;;26.20;;
70169;SDS011;57543;45.442;9.212;2022-12-18T16:20:50;59.20;;;25.42;;
70169;SDS011;57543;45.442;9.212;2022-12-18T16:23:54;57.97;;;25.05;;
70169;SDS011;57543;45.442;9.212;2022-12-18T16:26:58;57.78;;;25.67;;
70169;SDS011;57543;45.442;9.212;2022-12-18T16:30:03;54.83;;;23.47;;
70169;SDS011;57543;45.442;9.212;2022-12-18T16:33:08;52.70;;;24.63;;
70169;SDS011;57543;45.442;9.212;2022-12-18T16:36:13;53.78;;;24.60;;
70169;SDS011;57543;45.442;9.212;2022-12-18T16:39:17;55.35;;;24.77;;
70169;SDS011;57543;45.442;9.212;2022-12-18T16:42:21;51.00;;;23.60;;
70169;SDS011;57543;45.442;9.212;2022-12-18T16:45:25;54.37;;;24.53;;
70169;SDS011;57543;45.442;9.212;2022-12-18T16:48:33;52.63;;;24.05;;
70169;SDS011;57543;45.442;9.212;2022-12-18T16:51:37;54.05;;;25.40;;
70169;SDS011;57543;45.442;9.212;2022-12-18T16:54:41;56.63;;;25.50;;
70169;SDS011;57543;45.442;9.212;2022-12-18T16:57:45;52.70;;;24.35;;
70169;SDS011;57543;45.442;9.212;2022-12-18T17:00:48;51.83;;;23.43;;
70169;SDS011;57543;45.442;9.212;2022-12-18T17:06:56;56.53;;;25.45;;
70169;SDS011;57543;45.442;9.212;2022-12-18T17:10:00;56.72;;;25.15;;
70169;SDS011;57543;45.442;9.212;2022-12-18T17:13:03;57.95;;;26.30;;
70169;SDS011;57543;45.442;9.212;2022-12-18T17:16:07;58.80;;;25.90;;
70169;SDS011;57543;45.442;9.212;2022-12-18T17:19:12;59.83;;;25.63;;
70169;SDS011;57543;45.442;9.212;2022-12-18T17:22:16;57.88;;;25.42;;
70169;SDS011;57543;45.442;9.212;2022-12-18T17:25:20;61.78;;;25.90;;
70169;SDS011;57543;45.442;9.212;2022-12-18T17:28:24;60.72;;;26.98;;
70169;SDS011;57543;45.442;9.212;2022-12-18T17:31:29;57.77;;;25.60;;
70169;SDS011;57543;45.442;9.212;2022-12-18T17:34:32;64.72;;;28.50;;
70169;SDS011;57543;45.442;9.212;2022-12-18T17:37:37;62.15;;;26.50;;
70169;SDS011;57543;45.442;9.212;2022-12-18T17:40:40;61.88;;;25.90;;
70169;SDS011;57543;45.442;9.212;2022-12-18T17:43:49;68.30;;;28.52;;
70169;SDS011;57543;45.442;9.212;2022-12-18T17:46:56;60.97;;;27.63;;
70169;SDS011;57543;45.442;9.212;2022-12-18T17:50:00;71.15;;;28.98;;
70169;SDS011;57543;45.442;9.212;2022-12-18T17:53:04;66.80;;;27.17;;
70169;SDS011;57543;45.442;9.212;2022-12-18T17:56:08;67.70;;;28.40;;
70169;SDS011;57543;45.442;9.212;2022-12-18T17:59:18;64.68;;;27.85;;
70169;SDS011;57543;45.442;9.212;2022-12-18T18:02:22;64.33;;;26.57;;
70169;SDS011;57543;45.442;9.212;2022-12-18T18:05:27;64.03;;;27.67;;
70169;SDS011;57543;45.442;9.212;2022-12-18T18:08:32;64.55;;;27.30;;
70169;SDS011;57543;45.442;9.212;2022-12-18T18:11:36;64.18;;;27.48;;
70169;SDS011;57543;45.442;9.212;2022-12-18T18:14:59;62.33;;;26.15;;
70169;SDS011;57543;45.442;9.212;2022-12-18T18:18:02;63.00;;;26.80;;
70169;SDS011;57543;45.442;9.212;2022-12-18T18:21:07;63.05;;;27.25;;
70169;SDS011;57543;45.442;9.212;2022-12-18T18:24:12;66.65;;;28.08;;
70169;SDS011;57543;45.442;9.212;2022-12-18T18:27:17;64.82;;;28.00;;
70169;SDS011;57543;45.442;9.212;2022-12-18T18:30:21;69.97;;;28.80;;
70169;SDS011;57543;45.442;9.212;2022-12-18T18:33:24;66.97;;;27.57;;
70169;SDS011;57543;45.442;9.212;2022-12-18T18:36:28;69.30;;;27.83;;
70169;SDS011;57543;45.442;9.212;2022-12-18T18:39:32;70.63;;;28.50;;
70169;SDS011;57543;45.442;9.212;2022-12-18T18:42:36;78.18;;;30.20;;
70169;SDS011;57543;45.442;9.212;2022-12-18T18:45:40;74.93;;;28.65;;
70169;SDS011;57543;45.442;9.212;2022-12-18T18:48:44;73.17;;;28.37;;
70169;SDS011;57543;45.442;9.212;2022-12-18T18:51:48;69.10;;;27.67;;
70169;SDS011;57543;45.442;9.212;2022-12-18T18:54:52;75.53;;;28.17;;
70169;SDS011;57543;45.442;9.212;2022-12-18T18:57:56;71.72;;;28.92;;
70169;SDS011;57543;45.442;9.212;2022-12-18T19:01:04;73.30;;;27.98;;
70169;SDS011;57543;45.442;9.212;2022-12-18T19:04:10;67.43;;;27.03;;
70169;SDS011;57543;45.442;9.212;2022-12-18T19:07:14;70.90;;;27.75;;
70169;SDS011;57543;45.442;9.212;2022-12-18T19:10:18;78.22;;;29.23;;
70169;SDS011;57543;45.442;9.212;2022-12-18T19:13:22;80.93;;;28.58;;
70169;SDS011;57543;45.442;9.212;2022-12-18T19:16:28;76.53;;;29.90;;
70169;SDS011;57543;45.442;9.212;2022-12-18T19:19:32;89.53;;;29.27;;
70169;SDS011;57543;45.442;9.212;2022-12-18T19:22:36;82.85;;;30.92;;
70169;SDS011;57543;45.442;9.212;2022-12-18T19:25:40;83.47;;;30.55;;
70169;SDS011;57543;45.442;9.212;2022-12-18T19:28:44;88.43;;;30.90;;
70169;SDS011;57543;45.442;9.212;2022-12-18T19:31:48;90.78;;;32.70;;
70169;SDS011;57543;45.442;9.212;2022-12-18T19:34:52;96.40;;;31.43;;